Time;durP1;ratioP1;P1;durP2;ratioP2;P2;SDS_P1;SDS_P2;PMS_P1;PMS_P2;Temp;Humidity;BMP_temperature;BMP_pressure;BME280_temperature;BME280_humidity;BME280_pressure;Samples;Min_cycle;Max_cycle;Signal;HPM_P1;HPM_P2
2023/06/04 18:39:29;;;;;;;5.68;1.70;;;26.70;47.60;;;;;;5110681;27;20339;-62
2023/06/04 18:41:55;;;;;;;3.88;1.88;;;25.80;49.10;;;;;;5107636;28;20366;-60
2023/06/04 18:44:23;;;;;;;2.78;1.33;;;25.00;50.60;;;;;;5108743;28;20551;-61
2023/06/04 18:46:49;;;;;;;4.22;1.55;;;24.20;52.30;;;;;;5109139;28;20082;-62
2023/06/04 18:49:16;;;;;;;3.45;1.63;;;23.60;53.60;;;;;;5109039;28;20032;-60
2023/06/04 18:51:42;;;;;;;9.75;1.48;;;23.00;54.90;;;;;;5108481;28;20054;-59
2023/06/04 18:54:09;;;;;;;4.32;1.52;;;22.60;56.10;;;;;;5109340;28;20053;-59
2023/06/04 18:56:34;;;;;;;4.40;1.30;;;22.40;56.80;;;;;;5109325;28;20018;-60
2023/06/04 18:59:00;;;;;;;6.45;1.50;;;22.30;57.10;;;;;;5108572;28;20131;-59
2023/06/04 19:01:26;;;;;;;3.40;1.80;;;22.20;57.50;;;;;;5090790;28;20128;-61
2023/06/04 19:03:51;;;;;;;2.55;1.40;;;22.00;58.00;;;;;;5091938;28;20020;-59
2023/06/04 19:06:17;;;;;;;3.70;1.33;;;21.80;58.70;;;;;;5088072;28;20025;-60
2023/06/04 19:08:43;;;;;;;3.08;1.20;;;21.70;59.40;;;;;;5088477;28;20016;-60
2023/06/04 19:11:09;;;;;;;3.55;1.40;;;21.50;59.70;;;;;;5093179;28;20028;-59
2023/06/04 19:13:34;;;;;;;3.30;1.35;;;21.40;60.00;;;;;;5108023;28;20096;-59
2023/06/04 19:16:00;;;;;;;4.38;1.42;;;21.30;60.30;;;;;;5108834;28;20028;-60
2023/06/04 19:18:25;;;;;;;3.83;1.67;;;21.10;60.70;;;;;;5108905;28;20040;-61
2023/06/04 19:20:51;;;;;;;4.10;1.60;;;21.00;61.00;;;;;;5108360;28;20081;-62
2023/06/04 19:23:17;;;;;;;4.30;1.58;;;20.80;61.40;;;;;;5108698;28;20028;-59
2023/06/04 19:25:42;;;;;;;3.33;1.63;;;20.70;62.00;;;;;;5108009;28;20028;-61
2023/06/04 19:28:11;;;;;;;3.22;1.55;;;20.50;62.30;;;;;;5108271;28;20103;-60
2023/06/04 19:30:37;;;;;;;6.00;1.95;;;20.50;63.20;;;;;;5109287;28;20377;-60
2023/06/04 19:33:03;;;;;;;3.03;1.60;;;20.40;63.70;;;;;;5107104;28;20024;-60
2023/06/04 19:35:28;;;;;;;4.47;1.65;;;20.30;63.70;;;;;;5108897;28;20024;-60
2023/06/04 19:37:54;;;;;;;2.92;1.40;;;20.20;64.10;;;;;;5107893;28;20097;-60
2023/06/04 19:40:19;;;;;;;3.88;1.42;;;20.00;64.50;;;;;;5107954;28;20515;-59
2023/06/04 19:42:45;;;;;;;5.38;1.50;;;19.80;64.90;;;;;;5108233;28;20040;-60
2023/06/04 19:45:11;;;;;;;3.40;1.40;;;19.70;65.50;;;;;;5102098;28;20052;-60
2023/06/04 19:47:39;;;;;;;5.68;1.60;;;19.50;66.00;;;;;;5087335;28;20024;-57
2023/06/04 19:50:05;;;;;;;3.33;1.40;;;19.40;66.50;;;;;;5094429;28;20036;-60
2023/06/04 19:52:31;;;;;;;4.30;1.40;;;19.30;67.00;;;;;;5073967;28;20405;-59
2023/06/04 19:54:57;;;;;;;2.50;1.27;;;19.20;67.50;;;;;;5055064;28;20024;-59
2023/06/04 19:57:23;;;;;;;3.58;1.75;;;19.10;67.90;;;;;;5086977;28;20039;-59
2023/06/04 19:59:49;;;;;;;2.42;1.38;;;18.90;68.30;;;;;;5094421;28;20608;-59
2023/06/04 20:02:14;;;;;;;4.53;1.80;;;18.80;68.90;;;;;;5093278;28;20487;-60
2023/06/04 20:04:40;;;;;;;5.75;1.52;;;18.60;69.50;;;;;;5091460;28;20495;-60
2023/06/04 20:07:06;;;;;;;1.98;1.67;;;18.50;69.80;;;;;;5074222;28;20029;-59
2023/06/04 20:09:34;;;;;;;3.10;1.65;;;18.50;70.30;;;;;;5083113;28;20027;-59
2023/06/04 20:12:03;;;;;;;3.67;1.90;;;18.40;70.80;;;;;;5092728;28;20044;-59
2023/06/04 20:14:29;;;;;;;4.18;1.45;;;18.30;71.30;;;;;;5093694;28;20066;-59
2023/06/04 20:16:55;;;;;;;4.03;1.88;;;18.20;71.90;;;;;;5093611;28;20048;-60
2023/06/04 20:19:21;;;;;;;3.90;1.83;;;18.00;72.50;;;;;;5093242;28;20060;-60
